Tigerville, South Carolina
Current Conditions -  °F | °C
As of 5:53 PM on Thursday 20 Nov 2014 (Local Time) from KGMU Reporting Station
Clear Clear  
Wind Chill: 56°   Ceiling: Unl
Heat Index: 56°   Visibility: 10mi
Dew Point: 22°   Wind: 14mph
Humidity: 27%   Direction: 250°WSW
Pressure: 30.1"   Gusts: NA
Location:  35.07°N, 82.37°W
Report Text: KGMU 202253Z 25012KT 10SM CLR 13/M06 A3010 RMK AO2 SLP197 T01331056
Loading
Personal Weather Stations






























Interactive Weather Map New forecast layout! Learn more

10-Day Weather Forecast

Advertisements
Track Severe Weather on mobile